sensor_id;sensor_type;location;lat;lon;timestamp;pressure;altitude;pressure_sealevel;temperature
61189;BMP280;47054;39.716;2.904;2023-05-16T00:02:31;99894.34;;;25.09
61189;BMP280;47054;39.716;2.904;2023-05-16T00:05:16;99889.03;;;25.05
61189;BMP280;47054;39.716;2.904;2023-05-16T00:08:00;99893.13;;;25.10
61189;BMP280;47054;39.716;2.904;2023-05-16T00:10:45;99889.66;;;25.09
61189;BMP280;47054;39.716;2.904;2023-05-16T00:13:29;99892.72;;;25.11
61189;BMP280;47054;39.716;2.904;2023-05-16T00:16:15;99873.25;;;25.00
61189;BMP280;47054;39.716;2.904;2023-05-16T00:18:59;99883.03;;;25.10
61189;BMP280;47054;39.716;2.904;2023-05-16T00:21:45;99875.00;;;25.07
61189;BMP280;47054;39.716;2.904;2023-05-16T00:24:30;99879.56;;;25.10
61189;BMP280;47054;39.716;2.904;2023-05-16T00:27:15;99874.13;;;25.10
61189;BMP280;47054;39.716;2.904;2023-05-16T00:30:00;99869.16;;;25.08
61189;BMP280;47054;39.716;2.904;2023-05-16T00:32:45;99867.97;;;25.09
61189;BMP280;47054;39.716;2.904;2023-05-16T00:35:29;99861.78;;;25.09
61189;BMP280;47054;39.716;2.904;2023-05-16T00:38:14;99862.53;;;25.09
61189;BMP280;47054;39.716;2.904;2023-05-16T00:40:59;99862.88;;;25.11
61189;BMP280;47054;39.716;2.904;2023-05-16T00:43:44;99855.59;;;25.08
61189;BMP280;47054;39.716;2.904;2023-05-16T00:46:28;99844.38;;;25.06
61189;BMP280;47054;39.716;2.904;2023-05-16T00:49:14;99848.34;;;25.05
61189;BMP280;47054;39.716;2.904;2023-05-16T00:51:59;99842.03;;;25.08
61189;BMP280;47054;39.716;2.904;2023-05-16T00:54:44;99848.97;;;25.09
61189;BMP280;47054;39.716;2.904;2023-05-16T00:57:30;99834.97;;;25.11
61189;BMP280;47054;39.716;2.904;2023-05-16T01:00:15;99822.19;;;25.11
61189;BMP280;47054;39.716;2.904;2023-05-16T01:03:00;99824.13;;;25.11
61189;BMP280;47054;39.716;2.904;2023-05-16T01:05:45;99817.94;;;25.10
61189;BMP280;47054;39.716;2.904;2023-05-16T01:08:30;99803.28;;;25.08
61189;BMP280;47054;39.716;2.904;2023-05-16T01:21:15;99794.47;;;25.03
61189;BMP280;47054;39.716;2.904;2023-05-16T01:27:12;99786.25;;;25.07
61189;BMP280;47054;39.716;2.904;2023-05-16T01:29:57;99777.34;;;25.07
61189;BMP280;47054;39.716;2.904;2023-05-16T01:32:41;99774.72;;;25.03
61189;BMP280;47054;39.716;2.904;2023-05-16T01:35:27;99775.38;;;25.07
61189;BMP280;47054;39.716;2.904;2023-05-16T01:38:17;99779.66;;;25.08
61189;BMP280;47054;39.716;2.904;2023-05-16T01:41:09;99774.41;;;25.01
61189;BMP280;47054;39.716;2.904;2023-05-16T01:44:01;99770.50;;;25.02
61189;BMP280;47054;39.716;2.904;2023-05-16T01:46:48;99769.00;;;25.01
61189;BMP280;47054;39.716;2.904;2023-05-16T01:49:50;99763.88;;;25.03
61189;BMP280;47054;39.716;2.904;2023-05-16T01:52:45;99770.41;;;25.06
61189;BMP280;47054;39.716;2.904;2023-05-16T01:55:43;99771.91;;;25.07
61189;BMP280;47054;39.716;2.904;2023-05-16T01:58:33;99771.16;;;25.06
61189;BMP280;47054;39.716;2.904;2023-05-16T02:01:19;99770.06;;;25.03
61189;BMP280;47054;39.716;2.904;2023-05-16T02:04:04;99761.16;;;25.03
61189;BMP280;47054;39.716;2.904;2023-05-16T02:06:49;99762.25;;;25.06
61189;BMP280;47054;39.716;2.904;2023-05-16T02:09:34;99759.56;;;25.06
61189;BMP280;47054;39.716;2.904;2023-05-16T02:12:21;99753.03;;;25.03
61189;BMP280;47054;39.716;2.904;2023-05-16T02:15:06;99768.03;;;25.08
61189;BMP280;47054;39.716;2.904;2023-05-16T02:17:51;99763.38;;;25.08
61189;BMP280;47054;39.716;2.904;2023-05-16T02:20:36;99754.13;;;25.06
61189;BMP280;47054;39.716;2.904;2023-05-16T02:23:20;99764.13;;;25.09
61189;BMP280;47054;39.716;2.904;2023-05-16T02:26:05;99749.53;;;25.02
61189;BMP280;47054;39.716;2.904;2023-05-16T02:28:49;99754.56;;;25.04
61189;BMP280;47054;39.716;2.904;2023-05-16T02:31:34;99756.41;;;25.07
61189;BMP280;47054;39.716;2.904;2023-05-16T02:34:20;99751.31;;;25.09
61189;BMP280;47054;39.716;2.904;2023-05-16T02:37:04;99736.75;;;25.03
61189;BMP280;47054;39.716;2.904;2023-05-16T02:39:49;99741.41;;;25.02
61189;BMP280;47054;39.716;2.904;2023-05-16T02:42:34;99743.59;;;25.08
61189;BMP280;47054;39.716;2.904;2023-05-16T02:45:18;99738.38;;;25.00
61189;BMP280;47054;39.716;2.904;2023-05-16T02:48:03;99734.81;;;25.03
61189;BMP280;47054;39.716;2.904;2023-05-16T02:50:48;99749.81;;;25.08
61189;BMP280;47054;39.716;2.904;2023-05-16T02:53:32;99737.13;;;25.05
61189;BMP280;47054;39.716;2.904;2023-05-16T02:56:17;99740.91;;;25.08
61189;BMP280;47054;39.716;2.904;2023-05-16T02:59:04;99737.41;;;25.07
61189;BMP280;47054;39.716;2.904;2023-05-16T03:01:48;99735.47;;;25.08
61189;BMP280;47054;39.716;2.904;2023-05-16T03:04:34;99733.94;;;25.07
61189;BMP280;47054;39.716;2.904;2023-05-16T03:07:18;99733.94;;;25.07
61189;BMP280;47054;39.716;2.904;2023-05-16T03:10:03;99734.69;;;25.07
61189;BMP280;47054;39.716;2.904;2023-05-16T03:12:48;99732.00;;;25.07
61189;BMP280;47054;39.716;2.904;2023-05-16T03:15:32;99733.94;;;25.07
61189;BMP280;47054;39.716;2.904;2023-05-16T03:18:17;99729.19;;;24.98
61189;BMP280;47054;39.716;2.904;2023-05-16T03:21:02;99732.44;;;25.06
61189;BMP280;47054;39.716;2.904;2023-05-16T03:23:46;99737.84;;;25.06
61189;BMP280;47054;39.716;2.904;2023-05-16T03:26:31;99731.22;;;25.07
61189;BMP280;47054;39.716;2.904;2023-05-16T03:29:15;99730.44;;;25.06
61189;BMP280;47054;39.716;2.904;2023-05-16T03:32:00;99736.66;;;25.07
61189;BMP280;47054;39.716;2.904;2023-05-16T03:34:45;99728.22;;;25.05
61189;BMP280;47054;39.716;2.904;2023-05-16T03:37:30;99734.50;;;25.02
61189;BMP280;47054;39.716;2.904;2023-05-16T03:40:15;99743.28;;;25.06
61189;BMP280;47054;39.716;2.904;2023-05-16T03:42:59;99744.00;;;25.06
61189;BMP280;47054;39.716;2.904;2023-05-16T03:45:44;99741.31;;;25.06
61189;BMP280;47054;39.716;2.904;2023-05-16T03:48:29;99742.06;;;25.07
61189;BMP280;47054;39.716;2.904;2023-05-16T03:51:13;99742.06;;;25.07
61189;BMP280;47054;39.716;2.904;2023-05-16T03:53:58;99726.09;;;24.96
61189;BMP280;47054;39.716;2.904;2023-05-16T03:56:42;99739.94;;;25.02
61189;BMP280;47054;39.716;2.904;2023-05-16T03:59:27;99745.25;;;25.05
61189;BMP280;47054;39.716;2.904;2023-05-16T04:02:12;99742.19;;;25.03
61189;BMP280;47054;39.716;2.904;2023-05-16T04:04:56;99733.38;;;24.99
61189;BMP280;47054;39.716;2.904;2023-05-16T04:07:41;99746.00;;;25.06
61189;BMP280;47054;39.716;2.904;2023-05-16T04:10:25;99750.69;;;25.05
61189;BMP280;47054;39.716;2.904;2023-05-16T04:13:11;99749.91;;;25.05
61189;BMP280;47054;39.716;2.904;2023-05-16T04:15:56;99749.13;;;25.04
61189;BMP280;47054;39.716;2.904;2023-05-16T04:18:40;99739.16;;;25.01
61189;BMP280;47054;39.716;2.904;2023-05-16T04:21:25;99743.38;;;25.02
61189;BMP280;47054;39.716;2.904;2023-05-16T04:24:09;99724.63;;;24.95
61189;BMP280;47054;39.716;2.904;2023-05-16T04:26:54;99730.25;;;25.00
61189;BMP280;47054;39.716;2.904;2023-05-16T04:29:38;99734.81;;;25.03
61189;BMP280;47054;39.716;2.904;2023-05-16T04:32:23;99733.63;;;25.05
61189;BMP280;47054;39.716;2.904;2023-05-16T04:35:09;99717.56;;;24.97
61189;BMP280;47054;39.716;2.904;2023-05-16T04:37:53;99727.84;;;25.02
61189;BMP280;47054;39.716;2.904;2023-05-16T04:40:38;99724.06;;;25.00
61189;BMP280;47054;39.716;2.904;2023-05-16T04:43:24;99717.47;;;25.01
61189;BMP280;47054;39.716;2.904;2023-05-16T04:46:09;99698.34;;;24.92
61189;BMP280;47054;39.716;2.904;2023-05-16T04:48:54;99711.81;;;24.95
61189;BMP280;47054;39.716;2.904;2023-05-16T04:51:39;99718.34;;;24.98
61189;BMP280;47054;39.716;2.904;2023-05-16T04:54:23;99735.25;;;25.02
61189;BMP280;47054;39.716;2.904;2023-05-16T04:57:09;99738.81;;;24.99
61189;BMP280;47054;39.716;2.904;2023-05-16T04:59:54;99738.81;;;24.99
61189;BMP280;47054;39.716;2.904;2023-05-16T05:02:38;99746.09;;;25.02
61189;BMP280;47054;39.716;2.904;2023-05-16T05:05:23;99735.47;;;24.95
61189;BMP280;47054;39.716;2.904;2023-05-16T05:08:07;99744.22;;;24.99
61189;BMP280;47054;39.716;2.904;2023-05-16T05:10:54;99748.91;;;24.98
61189;BMP280;47054;39.716;2.904;2023-05-16T05:13:39;99747.69;;;24.99
61189;BMP280;47054;39.716;2.904;2023-05-16T05:16:24;99753.50;;;25.02
61189;BMP280;47054;39.716;2.904;2023-05-16T05:19:08;99752.72;;;25.01
61189;BMP280;47054;39.716;2.904;2023-05-16T05:21:53;99754.66;;;25.00
61189;BMP280;47054;39.716;2.904;2023-05-16T05:24:38;99749.66;;;24.99
61189;BMP280;47054;39.716;2.904;2023-05-16T05:27:22;99754.66;;;25.00
61189;BMP280;47054;39.716;2.904;2023-05-16T05:30:08;99752.06;;;24.97
61189;BMP280;47054;39.716;2.904;2023-05-16T05:32:53;99757.03;;;24.98
61189;BMP280;47054;39.716;2.904;2023-05-16T05:35:38;99744.47;;;24.92
61189;BMP280;47054;39.716;2.904;2023-05-16T05:38:22;99760.50;;;24.99
61189;BMP280;47054;39.716;2.904;2023-05-16T05:41:07;99753.13;;;24.99
61189;BMP280;47054;39.716;2.904;2023-05-16T05:43:52;99749.03;;;24.95
61189;BMP280;47054;39.716;2.904;2023-05-16T05:46:36;99745.66;;;24.91
61189;BMP280;47054;39.716;2.904;2023-05-16T05:49:25;99744.69;;;24.97
61189;BMP280;47054;39.716;2.904;2023-05-16T05:52:10;99749.66;;;24.99
61189;BMP280;47054;39.716;2.904;2023-05-16T05:54:54;99748.47;;;25.00
61189;BMP280;47054;39.716;2.904;2023-05-16T05:57:39;99749.03;;;24.95
61189;BMP280;47054;39.716;2.904;2023-05-16T06:00:23;99740.63;;;24.89
61189;BMP280;47054;39.716;2.904;2023-05-16T06:03:08;99758.25;;;24.97
61189;BMP280;47054;39.716;2.904;2023-05-16T06:05:52;99753.59;;;24.98
61189;BMP280;47054;39.716;2.904;2023-05-16T06:08:37;99756.31;;;24.98
61189;BMP280;47054;39.716;2.904;2023-05-16T06:11:21;99759.75;;;24.98
61189;BMP280;47054;39.716;2.904;2023-05-16T06:14:06;99762.47;;;24.98
61189;BMP280;47054;39.716;2.904;2023-05-16T06:16:50;99766.78;;;24.96
61189;BMP280;47054;39.716;2.904;2023-05-16T06:19:35;99763.34;;;24.95
61189;BMP280;47054;39.716;2.904;2023-05-16T06:22:19;99771.34;;;24.99
61189;BMP280;47054;39.716;2.904;2023-05-16T06:25:04;99770.72;;;24.95
61189;BMP280;47054;39.716;2.904;2023-05-16T06:27:49;99759.88;;;24.95
61189;BMP280;47054;39.716;2.904;2023-05-16T06:30:33;99771.34;;;24.99
61189;BMP280;47054;39.716;2.904;2023-05-16T06:33:18;99777.22;;;24.97
61189;BMP280;47054;39.716;2.904;2023-05-16T06:36:03;99771.56;;;24.92
61189;BMP280;47054;39.716;2.904;2023-05-16T06:38:48;99779.19;;;24.97
61189;BMP280;47054;39.716;2.904;2023-05-16T06:41:34;99778.75;;;24.98
61189;BMP280;47054;39.716;2.904;2023-05-16T06:44:18;99786.13;;;24.98
61189;BMP280;47054;39.716;2.904;2023-05-16T06:47:03;99790.34;;;24.99
61189;BMP280;47054;39.716;2.904;2023-05-16T06:49:48;99781.47;;;24.98
61189;BMP280;47054;39.716;2.904;2023-05-16T06:52:33;99782.66;;;24.97
61189;BMP280;47054;39.716;2.904;2023-05-16T06:55:18;99782.66;;;24.97
61189;BMP280;47054;39.716;2.904;2023-05-16T06:58:03;99789.59;;;24.98
61189;BMP280;47054;39.716;2.904;2023-05-16T07:00:48;99779.47;;;24.99
61189;BMP280;47054;39.716;2.904;2023-05-16T07:03:33;99781.03;;;25.00
61189;BMP280;47054;39.716;2.904;2023-05-16T07:06:17;99783.72;;;25.00
61189;BMP280;47054;39.716;2.904;2023-05-16T07:09:02;99779.47;;;24.99
61189;BMP280;47054;39.716;2.904;2023-05-16T07:11:46;99781.78;;;25.00
61189;BMP280;47054;39.716;2.904;2023-05-16T07:14:31;99783.72;;;25.00
61189;BMP280;47054;39.716;2.904;2023-05-16T07:17:15;99792.31;;;24.98
61189;BMP280;47054;39.716;2.904;2023-05-16T07:20:00;99785.78;;;24.96
61189;BMP280;47054;39.716;2.904;2023-05-16T07:22:44;99796.88;;;25.02
61189;BMP280;47054;39.716;2.904;2023-05-16T07:25:29;99792.63;;;25.00
61189;BMP280;47054;39.716;2.904;2023-05-16T07:28:14;99804.25;;;25.01
61189;BMP280;47054;39.716;2.904;2023-05-16T07:30:59;99796.88;;;25.02
61189;BMP280;47054;39.716;2.904;2023-05-16T07:33:44;99793.41;;;25.01
61189;BMP280;47054;39.716;2.904;2023-05-16T07:36:30;99801.94;;;24.99
61189;BMP280;47054;39.716;2.904;2023-05-16T07:39:15;99809.22;;;25.02
61189;BMP280;47054;39.716;2.904;2023-05-16T07:41:59;99802.31;;;25.02
61189;BMP280;47054;39.716;2.904;2023-05-16T07:44:44;99802.31;;;25.02
61189;BMP280;47054;39.716;2.904;2023-05-16T07:47:28;99802.31;;;25.02
61189;BMP280;47054;39.716;2.904;2023-05-16T07:50:13;99803.91;;;24.99
61189;BMP280;47054;39.716;2.904;2023-05-16T07:52:58;99798.16;;;24.97
61189;BMP280;47054;39.716;2.904;2023-05-16T07:55:42;99794.91;;;25.02
61189;BMP280;47054;39.716;2.904;2023-05-16T07:58:27;99805.44;;;25.00
61189;BMP280;47054;39.716;2.904;2023-05-16T08:01:11;99797.41;;;24.96
61189;BMP280;47054;39.716;2.904;2023-05-16T08:03:56;99802.81;;;24.96
61189;BMP280;47054;39.716;2.904;2023-05-16T08:06:40;99809.69;;;25.01
61189;BMP280;47054;39.716;2.904;2023-05-16T08:09:25;99813.91;;;25.02
61189;BMP280;47054;39.716;2.904;2023-05-16T08:12:09;99811.19;;;25.02
61189;BMP280;47054;39.716;2.904;2023-05-16T08:14:54;99806.19;;;25.00
61189;BMP280;47054;39.716;2.904;2023-05-16T08:17:38;99795.34;;;25.00
61189;BMP280;47054;39.716;2.904;2023-05-16T08:20:24;99801.53;;;25.01
61189;BMP280;47054;39.716;2.904;2023-05-16T08:23:08;99806.97;;;25.01
61189;BMP280;47054;39.716;2.904;2023-05-16T08:25:53;99800.78;;;25.00
61189;BMP280;47054;39.716;2.904;2023-05-16T08:28:38;99790.34;;;24.99
61189;BMP280;47054;39.716;2.904;2023-05-16T08:31:23;99796.88;;;25.02
61189;BMP280;47054;39.716;2.904;2023-05-16T08:34:07;99792.31;;;24.98
61189;BMP280;47054;39.716;2.904;2023-05-16T08:36:53;99806.97;;;25.01
61189;BMP280;47054;39.716;2.904;2023-05-16T08:39:38;99790.03;;;24.97
61189;BMP280;47054;39.716;2.904;2023-05-16T08:42:23;99802.31;;;25.02
61189;BMP280;47054;39.716;2.904;2023-05-16T08:45:09;99800.44;;;24.98
61189;BMP280;47054;39.716;2.904;2023-05-16T08:47:54;99805.78;;;25.02
61189;BMP280;47054;39.716;2.904;2023-05-16T08:50:40;99810.44;;;25.02
61189;BMP280;47054;39.716;2.904;2023-05-16T08:53:42;99812.69;;;25.03
61189;BMP280;47054;39.716;2.904;2023-05-16T08:56:28;99816.84;;;24.95
61189;BMP280;47054;39.716;2.904;2023-05-16T08:59:13;99812.59;;;24.94
61189;BMP280;47054;39.716;2.904;2023-05-16T09:01:58;99810.66;;;24.94
61189;BMP280;47054;39.716;2.904;2023-05-16T09:04:44;99804.88;;;24.92
61189;BMP280;47054;39.716;2.904;2023-05-16T09:07:30;99820.16;;;24.99
61189;BMP280;47054;39.716;2.904;2023-05-16T09:10:15;99826.34;;;24.99
61189;BMP280;47054;39.716;2.904;2023-05-16T09:12:59;99815.09;;;25.01
61189;BMP280;47054;39.716;2.904;2023-05-16T09:15:44;99820.53;;;25.01
61189;BMP280;47054;39.716;2.904;2023-05-16T09:18:29;99815.97;;;24.98
61189;BMP280;47054;39.716;2.904;2023-05-16T09:21:13;99824.00;;;25.02
61189;BMP280;47054;39.716;2.904;2023-05-16T09:24:07;99821.59;;;25.03
61189;BMP280;47054;39.716;2.904;2023-05-16T09:26:53;99818.78;;;24.94
61189;BMP280;47054;39.716;2.904;2023-05-16T09:29:42;99814.66;;;25.02
61189;BMP280;47054;39.716;2.904;2023-05-16T09:32:26;99815.88;;;25.02
61189;BMP280;47054;39.716;2.904;2023-05-16T09:35:14;99816.94;;;25.04
61189;BMP280;47054;39.716;2.904;2023-05-16T09:38:00;99815.88;;;25.02
61189;BMP280;47054;39.716;2.904;2023-05-16T09:40:44;99820.53;;;25.01
61189;BMP280;47054;39.716;2.904;2023-05-16T09:43:29;99820.84;;;25.03
61189;BMP280;47054;39.716;2.904;2023-05-16T09:46:14;99822.78;;;25.02
61189;BMP280;47054;39.716;2.904;2023-05-16T09:48:59;99811.28;;;24.98
61189;BMP280;47054;39.716;2.904;2023-05-16T09:51:44;99811.28;;;24.98
61189;BMP280;47054;39.716;2.904;2023-05-16T09:54:33;99810.00;;;25.03
61189;BMP280;47054;39.716;2.904;2023-05-16T09:57:22;99808.91;;;25.00
61189;BMP280;47054;39.716;2.904;2023-05-16T10:00:09;99799.69;;;24.98
61189;BMP280;47054;39.716;2.904;2023-05-16T10:02:56;99816.94;;;25.04
61189;BMP280;47054;39.716;2.904;2023-05-16T10:05:41;99813.91;;;25.02
61189;BMP280;47054;39.716;2.904;2023-05-16T10:08:26;99810.84;;;25.00
61189;BMP280;47054;39.716;2.904;2023-05-16T10:11:12;99800.09;;;24.96
61189;BMP280;47054;39.716;2.904;2023-05-16T10:13:57;99814.25;;;25.04
61189;BMP280;47054;39.716;2.904;2023-05-16T10:16:42;99820.44;;;25.05
61189;BMP280;47054;39.716;2.904;2023-05-16T10:19:28;99811.53;;;25.04
61189;BMP280;47054;39.716;2.904;2023-05-16T10:22:15;99803.38;;;25.04
61189;BMP280;47054;39.716;2.904;2023-05-16T10:25:08;99808.81;;;25.04
61189;BMP280;47054;39.716;2.904;2023-05-16T10:27:56;99806.50;;;25.02
61189;BMP280;47054;39.716;2.904;2023-05-16T10:30:44;99814.25;;;25.04
61189;BMP280;47054;39.716;2.904;2023-05-16T10:33:28;99800.44;;;24.98
61189;BMP280;47054;39.716;2.904;2023-05-16T10:36:13;99810.00;;;25.03
61189;BMP280;47054;39.716;2.904;2023-05-16T10:38:59;99800.44;;;24.98
61189;BMP280;47054;39.716;2.904;2023-05-16T10:41:45;99807.28;;;25.03
61189;BMP280;47054;39.716;2.904;2023-05-16T10:44:33;99800.97;;;25.06
61189;BMP280;47054;39.716;2.904;2023-05-16T10:47:18;99805.34;;;25.03
61189;BMP280;47054;39.716;2.904;2023-05-16T10:50:03;99799.91;;;25.03
61189;BMP280;47054;39.716;2.904;2023-05-16T10:52:51;99794.91;;;25.02
61189;BMP280;47054;39.716;2.904;2023-05-16T10:55:38;99794.19;;;25.02
61189;BMP280;47054;39.716;2.904;2023-05-16T10:58:24;99796.03;;;25.05
61189;BMP280;47054;39.716;2.904;2023-05-16T11:01:29;99791.78;;;25.03
61189;BMP280;47054;39.716;2.904;2023-05-16T11:04:15;99791.00;;;25.03
61189;BMP280;47054;39.716;2.904;2023-05-16T11:07:00;99791.78;;;25.03
61189;BMP280;47054;39.716;2.904;2023-05-16T11:10:08;99785.94;;;25.05
61189;BMP280;47054;39.716;2.904;2023-05-16T11:12:53;99779.47;;;24.99
61189;BMP280;47054;39.716;2.904;2023-05-16T11:15:38;99784.06;;;25.02
61189;BMP280;47054;39.716;2.904;2023-05-16T11:18:23;99773.97;;;25.02
61189;BMP280;47054;39.716;2.904;2023-05-16T11:21:07;99782.56;;;25.01
61189;BMP280;47054;39.716;2.904;2023-05-16T11:24:29;99785.94;;;25.05
61189;BMP280;47054;39.716;2.904;2023-05-16T11:27:20;99778.63;;;25.02
61189;BMP280;47054;39.716;2.904;2023-05-16T11:32:50;99776.03;;;24.98
61189;BMP280;47054;39.716;2.904;2023-05-16T11:35:34;99773.97;;;25.02
61189;BMP280;47054;39.716;2.904;2023-05-16T11:38:20;99774.81;;;24.99
61189;BMP280;47054;39.716;2.904;2023-05-16T11:41:06;99777.13;;;25.01
61189;BMP280;47054;39.716;2.904;2023-05-16T11:43:51;99770.16;;;25.00
61189;BMP280;47054;39.716;2.904;2023-05-16T11:46:38;99764.75;;;25.00
61189;BMP280;47054;39.716;2.904;2023-05-16T11:49:24;99770.94;;;25.00
61189;BMP280;47054;39.716;2.904;2023-05-16T11:52:10;99770.06;;;25.03
61189;BMP280;47054;39.716;2.904;2023-05-16T11:54:54;99768.22;;;25.00
61189;BMP280;47054;39.716;2.904;2023-05-16T11:57:40;99766.19;;;25.05
61189;BMP280;47054;39.716;2.904;2023-05-16T12:00:26;99753.22;;;24.96
61189;BMP280;47054;39.716;2.904;2023-05-16T12:03:10;99766.94;;;25.05
61189;BMP280;47054;39.716;2.904;2023-05-16T12:05:55;99755.34;;;25.05
61189;BMP280;47054;39.716;2.904;2023-05-16T12:08:49;99758.81;;;25.05
61189;BMP280;47054;39.716;2.904;2023-05-16T12:11:33;99764.25;;;25.05
61189;BMP280;47054;39.716;2.904;2023-05-16T12:14:18;99764.66;;;25.03
61189;BMP280;47054;39.716;2.904;2023-05-16T12:17:03;99767.78;;;25.02
61189;BMP280;47054;39.716;2.904;2023-05-16T12:19:48;99763.09;;;25.02
61189;BMP280;47054;39.716;2.904;2023-05-16T12:22:33;99768.53;;;25.02
61189;BMP280;47054;39.716;2.904;2023-05-16T12:25:28;99768.44;;;25.06
61189;BMP280;47054;39.716;2.904;2023-05-16T12:28:15;99756.31;;;24.98
61189;BMP280;47054;39.716;2.904;2023-05-16T12:30:59;99765.81;;;25.02
61189;BMP280;47054;39.716;2.904;2023-05-16T12:33:44;99768.44;;;25.06
61189;BMP280;47054;39.716;2.904;2023-05-16T12:36:31;99774.72;;;25.03
61189;BMP280;47054;39.716;2.904;2023-05-16T12:39:17;99769.31;;;25.03
61189;BMP280;47054;39.716;2.904;2023-05-16T12:42:06;99780.50;;;25.05
61189;BMP280;47054;39.716;2.904;2023-05-16T12:44:55;99788.19;;;25.07
61189;BMP280;47054;39.716;2.904;2023-05-16T12:47:40;99787.41;;;25.06
61189;BMP280;47054;39.716;2.904;2023-05-16T12:50:25;99788.28;;;25.03
61189;BMP280;47054;39.716;2.904;2023-05-16T12:53:12;99796.31;;;25.07
61189;BMP280;47054;39.716;2.904;2023-05-16T12:55:57;99815.78;;;25.05
61189;BMP280;47054;39.716;2.904;2023-05-16T12:58:41;99830.81;;;25.06
61189;BMP280;47054;39.716;2.904;2023-05-16T13:01:26;99827.38;;;25.06
61189;BMP280;47054;39.716;2.904;2023-05-16T13:04:12;99817.72;;;25.05
61189;BMP280;47054;39.716;2.904;2023-05-16T13:07:01;99807.63;;;25.05
61189;BMP280;47054;39.716;2.904;2023-05-16T13:09:47;99812.59;;;25.07
61189;BMP280;47054;39.716;2.904;2023-05-16T13:12:32;99821.19;;;25.05
61189;BMP280;47054;39.716;2.904;2023-05-16T13:15:16;99823.44;;;25.07
61189;BMP280;47054;39.716;2.904;2023-05-16T13:18:01;99834.75;;;25.05
61189;BMP280;47054;39.716;2.904;2023-05-16T13:20:46;99828.09;;;25.06
61189;BMP280;47054;39.716;2.904;2023-05-16T13:23:30;99819.97;;;25.06
61189;BMP280;47054;39.716;2.904;2023-05-16T13:26:16;99825.09;;;25.04
61189;BMP280;47054;39.716;2.904;2023-05-16T13:29:00;99824.22;;;25.07
61189;BMP280;47054;39.716;2.904;2023-05-16T13:31:45;99821.50;;;25.07
61189;BMP280;47054;39.716;2.904;2023-05-16T13:34:30;99826.94;;;25.07
61189;BMP280;47054;39.716;2.904;2023-05-16T13:37:17;99832.78;;;25.06
61189;BMP280;47054;39.716;2.904;2023-05-16T13:40:02;99854.84;;;25.08
61189;BMP280;47054;39.716;2.904;2023-05-16T13:42:48;99860.13;;;24.98
61189;BMP280;47054;39.716;2.904;2023-05-16T13:45:32;99882.81;;;25.05
61189;BMP280;47054;39.716;2.904;2023-05-16T13:48:18;99881.97;;;25.08
61189;BMP280;47054;39.716;2.904;2023-05-16T13:51:02;99886.63;;;25.07
61189;BMP280;47054;39.716;2.904;2023-05-16T13:53:47;99870.34;;;25.07
61189;BMP280;47054;39.716;2.904;2023-05-16T13:56:32;99874.59;;;25.08
61189;BMP280;47054;39.716;2.904;2023-05-16T13:59:17;99881.97;;;25.08
61189;BMP280;47054;39.716;2.904;2023-05-16T14:02:02;99881.19;;;25.07
61189;BMP280;47054;39.716;2.904;2023-05-16T14:04:46;99870.88;;;25.02
61189;BMP280;47054;39.716;2.904;2023-05-16T14:07:31;99874.59;;;25.08
61189;BMP280;47054;39.716;2.904;2023-05-16T14:10:16;99870.03;;;25.05
61189;BMP280;47054;39.716;2.904;2023-05-16T14:13:02;99872.28;;;25.07
61189;BMP280;47054;39.716;2.904;2023-05-16T14:15:47;99865.25;;;25.09
61189;BMP280;47054;39.716;2.904;2023-05-16T14:18:31;99861.91;;;25.05
61189;BMP280;47054;39.716;2.904;2023-05-16T14:21:16;99865.69;;;25.08
61189;BMP280;47054;39.716;2.904;2023-05-16T14:24:01;99859.91;;;25.06
61189;BMP280;47054;39.716;2.904;2023-05-16T14:26:45;99862.53;;;25.09
61189;BMP280;47054;39.716;2.904;2023-05-16T14:29:30;99858.63;;;25.10
61189;BMP280;47054;39.716;2.904;2023-05-16T14:32:15;99856.38;;;25.09
61189;BMP280;47054;39.716;2.904;2023-05-16T14:34:59;99848.63;;;25.07
61189;BMP280;47054;39.716;2.904;2023-05-16T14:37:44;99845.53;;;25.09
61189;BMP280;47054;39.716;2.904;2023-05-16T14:40:28;99845.94;;;25.07
61189;BMP280;47054;39.716;2.904;2023-05-16T14:43:13;99844.75;;;25.08
61189;BMP280;47054;39.716;2.904;2023-05-16T14:45:57;99842.91;;;25.05
61189;BMP280;47054;39.716;2.904;2023-05-16T14:48:42;99836.91;;;25.10
61189;BMP280;47054;39.716;2.904;2023-05-16T14:51:27;99838.44;;;25.11
61189;BMP280;47054;39.716;2.904;2023-05-16T14:54:11;99827.28;;;25.09
61189;BMP280;47054;39.716;2.904;2023-05-16T14:56:56;99824.13;;;25.11
61189;BMP280;47054;39.716;2.904;2023-05-16T14:59:43;99821.41;;;25.11
61189;BMP280;47054;39.716;2.904;2023-05-16T15:02:27;99805.91;;;25.11
61189;BMP280;47054;39.716;2.904;2023-05-16T15:05:12;99803.19;;;25.11
61189;BMP280;47054;39.716;2.904;2023-05-16T15:07:56;99795.06;;;25.11
61189;BMP280;47054;39.716;2.904;2023-05-16T15:10:41;99802.41;;;25.11
61189;BMP280;47054;39.716;2.904;2023-05-16T15:13:26;99800.47;;;25.11
61189;BMP280;47054;39.716;2.904;2023-05-16T15:16:11;99789.28;;;25.09
61189;BMP280;47054;39.716;2.904;2023-05-16T15:18:55;99789.72;;;25.08
61189;BMP280;47054;39.716;2.904;2023-05-16T15:21:40;99796.69;;;25.09
61189;BMP280;47054;39.716;2.904;2023-05-16T15:24:25;99801.53;;;25.14
61189;BMP280;47054;39.716;2.904;2023-05-16T15:27:10;99789.94;;;25.13
61189;BMP280;47054;39.716;2.904;2023-05-16T15:29:54;99795.34;;;25.13
61189;BMP280;47054;39.716;2.904;2023-05-16T15:32:39;99798.06;;;25.13
61189;BMP280;47054;39.716;2.904;2023-05-16T15:35:23;99792.34;;;25.11
61189;BMP280;47054;39.716;2.904;2023-05-16T15:38:09;99791.47;;;25.14
61189;BMP280;47054;39.716;2.904;2023-05-16T15:40:53;99794.94;;;25.15
61189;BMP280;47054;39.716;2.904;2023-05-16T15:43:38;99787.56;;;25.15
61189;BMP280;47054;39.716;2.904;2023-05-16T15:46:23;99777.91;;;25.14
61189;BMP280;47054;39.716;2.904;2023-05-16T15:49:07;99776.81;;;25.12
61189;BMP280;47054;39.716;2.904;2023-05-16T15:51:52;99778.78;;;25.11
61189;BMP280;47054;39.716;2.904;2023-05-16T15:54:37;99777.13;;;25.14
61189;BMP280;47054;39.716;2.904;2023-05-16T15:57:21;99770.94;;;25.13
61189;BMP280;47054;39.716;2.904;2023-05-16T16:00:07;99780.91;;;25.16
61189;BMP280;47054;39.716;2.904;2023-05-16T16:02:56;99780.63;;;25.14
61189;BMP280;47054;39.716;2.904;2023-05-16T16:05:40;99783.22;;;25.18
61189;BMP280;47054;39.716;2.904;2023-05-16T16:08:25;99778.97;;;25.17
61189;BMP280;47054;39.716;2.904;2023-05-16T16:11:10;99776.63;;;25.19